sensor_id;sensor_type;location;lat;lon;timestamp;P1;durP1;ratioP1;P2;durP2;ratioP2
6043;SDS011;3050;42.660;23.276;2023-04-16T00:00:40;1.33;;;0.73;;
6043;SDS011;3050;42.660;23.276;2023-04-16T00:03:07;0.80;;;0.80;;
6043;SDS011;3050;42.660;23.276;2023-04-16T00:05:35;0.67;;;0.67;;
6043;SDS011;3050;42.660;23.276;2023-04-16T00:08:03;0.70;;;0.70;;
6043;SDS011;3050;42.660;23.276;2023-04-16T00:10:30;0.83;;;0.60;;
6043;SDS011;3050;42.660;23.276;2023-04-16T00:12:59;0.37;;;0.30;;
6043;SDS011;3050;42.660;23.276;2023-04-16T00:15:26;1.00;;;0.90;;
6043;SDS011;3050;42.660;23.276;2023-04-16T00:17:54;0.53;;;0.40;;
6043;SDS011;3050;42.660;23.276;2023-04-16T00:20:21;3.03;;;1.13;;
6043;SDS011;3050;42.660;23.276;2023-04-16T00:22:49;0.63;;;0.63;;
6043;SDS011;3050;42.660;23.276;2023-04-16T00:25:19;2.27;;;0.87;;
6043;SDS011;3050;42.660;23.276;2023-04-16T00:27:46;1.53;;;1.40;;
6043;SDS011;3050;42.660;23.276;2023-04-16T00:30:15;2.77;;;1.07;;
6043;SDS011;3050;42.660;23.276;2023-04-16T00:32:42;1.10;;;1.10;;
6043;SDS011;3050;42.660;23.276;2023-04-16T00:35:10;1.97;;;1.20;;
6043;SDS011;3050;42.660;23.276;2023-04-16T00:37:38;5.53;;;1.80;;
6043;SDS011;3050;42.660;23.276;2023-04-16T00:40:06;3.87;;;1.30;;
6043;SDS011;3050;42.660;23.276;2023-04-16T00:42:33;1.43;;;0.63;;
6043;SDS011;3050;42.660;23.276;2023-04-16T00:45:02;0.40;;;0.40;;
6043;SDS011;3050;42.660;23.276;2023-04-16T00:47:32;1.17;;;1.00;;
6043;SDS011;3050;42.660;23.276;2023-04-16T00:49:59;1.10;;;1.00;;
6043;SDS011;3050;42.660;23.276;2023-04-16T00:52:27;0.60;;;0.60;;
6043;SDS011;3050;42.660;23.276;2023-04-16T00:54:55;1.07;;;0.67;;
6043;SDS011;3050;42.660;23.276;2023-04-16T00:57:24;1.77;;;0.77;;
6043;SDS011;3050;42.660;23.276;2023-04-16T00:59:52;1.17;;;0.67;;
6043;SDS011;3050;42.660;23.276;2023-04-16T01:02:21;0.90;;;0.90;;
6043;SDS011;3050;42.660;23.276;2023-04-16T01:04:49;1.33;;;1.10;;
6043;SDS011;3050;42.660;23.276;2023-04-16T01:07:16;1.10;;;1.00;;
6043;SDS011;3050;42.660;23.276;2023-04-16T01:09:44;0.63;;;0.63;;
6043;SDS011;3050;42.660;23.276;2023-04-16T01:12:12;0.83;;;0.83;;
6043;SDS011;3050;42.660;23.276;2023-04-16T01:14:39;0.60;;;0.60;;
6043;SDS011;3050;42.660;23.276;2023-04-16T01:17:07;0.63;;;0.63;;
6043;SDS011;3050;42.660;23.276;2023-04-16T01:19:34;0.97;;;0.97;;
6043;SDS011;3050;42.660;23.276;2023-04-16T01:22:04;0.67;;;0.67;;
6043;SDS011;3050;42.660;23.276;2023-04-16T01:24:31;0.50;;;0.50;;
6043;SDS011;3050;42.660;23.276;2023-04-16T01:27:28;0.90;;;0.77;;
6043;SDS011;3050;42.660;23.276;2023-04-16T01:29:48;0.30;;;0.30;;
6043;SDS011;3050;42.660;23.276;2023-04-16T01:32:15;0.60;;;0.43;;
6043;SDS011;3050;42.660;23.276;2023-04-16T01:34:44;0.30;;;0.30;;
6043;SDS011;3050;42.660;23.276;2023-04-16T01:37:14;0.37;;;0.37;;
6043;SDS011;3050;42.660;23.276;2023-04-16T01:39:41;0.83;;;0.83;;
6043;SDS011;3050;42.660;23.276;2023-04-16T01:42:09;3.70;;;0.80;;
6043;SDS011;3050;42.660;23.276;2023-04-16T01:44:36;0.30;;;0.30;;
6043;SDS011;3050;42.660;23.276;2023-04-16T01:47:04;0.77;;;0.60;;
6043;SDS011;3050;42.660;23.276;2023-04-16T01:49:32;2.20;;;0.40;;
6043;SDS011;3050;42.660;23.276;2023-04-16T01:52:01;0.40;;;0.40;;
6043;SDS011;3050;42.660;23.276;2023-04-16T01:54:31;0.33;;;0.33;;
6043;SDS011;3050;42.660;23.276;2023-04-16T01:56:58;0.33;;;0.33;;
6043;SDS011;3050;42.660;23.276;2023-04-16T01:59:26;2.27;;;0.50;;
6043;SDS011;3050;42.660;23.276;2023-04-16T02:01:53;1.57;;;0.70;;
6043;SDS011;3050;42.660;23.276;2023-04-16T02:04:22;1.53;;;0.80;;
6043;SDS011;3050;42.660;23.276;2023-04-16T02:06:51;1.90;;;0.77;;
6043;SDS011;3050;42.660;23.276;2023-04-16T02:09:21;0.37;;;0.37;;
6043;SDS011;3050;42.660;23.276;2023-04-16T02:11:50;0.30;;;0.30;;
6043;SDS011;3050;42.660;23.276;2023-04-16T02:14:17;0.47;;;0.47;;
6043;SDS011;3050;42.660;23.276;2023-04-16T02:16:46;0.67;;;0.60;;
6043;SDS011;3050;42.660;23.276;2023-04-16T02:19:13;0.20;;;0.20;;
6043;SDS011;3050;42.660;23.276;2023-04-16T02:21:43;0.40;;;0.40;;
6043;SDS011;3050;42.660;23.276;2023-04-16T02:24:10;0.97;;;0.70;;
6043;SDS011;3050;42.660;23.276;2023-04-16T02:26:37;0.40;;;0.40;;
6043;SDS011;3050;42.660;23.276;2023-04-16T02:29:09;0.60;;;0.60;;
6043;SDS011;3050;42.660;23.276;2023-04-16T02:31:36;1.47;;;0.77;;
6043;SDS011;3050;42.660;23.276;2023-04-16T02:34:06;0.50;;;0.27;;
6043;SDS011;3050;42.660;23.276;2023-04-16T02:36:34;0.43;;;0.43;;
6043;SDS011;3050;42.660;23.276;2023-04-16T02:39:01;0.53;;;0.53;;
6043;SDS011;3050;42.660;23.276;2023-04-16T02:41:32;0.87;;;0.50;;
6043;SDS011;3050;42.660;23.276;2023-04-16T02:43:59;1.07;;;0.93;;
6043;SDS011;3050;42.660;23.276;2023-04-16T02:46:28;3.60;;;0.97;;
6043;SDS011;3050;42.660;23.276;2023-04-16T02:48:55;0.50;;;0.50;;
6043;SDS011;3050;42.660;23.276;2023-04-16T02:51:22;1.93;;;0.57;;
6043;SDS011;3050;42.660;23.276;2023-04-16T02:53:50;1.03;;;1.03;;
6043;SDS011;3050;42.660;23.276;2023-04-16T02:56:20;1.00;;;0.97;;
6043;SDS011;3050;42.660;23.276;2023-04-16T02:58:50;0.63;;;0.63;;
6043;SDS011;3050;42.660;23.276;2023-04-16T03:01:17;0.40;;;0.40;;
6043;SDS011;3050;42.660;23.276;2023-04-16T03:03:47;0.40;;;0.40;;
6043;SDS011;3050;42.660;23.276;2023-04-16T03:06:14;0.43;;;0.43;;
6043;SDS011;3050;42.660;23.276;2023-04-16T03:08:41;0.63;;;0.63;;
6043;SDS011;3050;42.660;23.276;2023-04-16T03:11:09;4.87;;;1.10;;
6043;SDS011;3050;42.660;23.276;2023-04-16T03:13:36;1.33;;;1.33;;
6043;SDS011;3050;42.660;23.276;2023-04-16T03:16:03;2.07;;;0.80;;
6043;SDS011;3050;42.660;23.276;2023-04-16T03:18:31;3.10;;;0.50;;
6043;SDS011;3050;42.660;23.276;2023-04-16T03:21:01;2.30;;;1.13;;
6043;SDS011;3050;42.660;23.276;2023-04-16T03:23:28;0.50;;;0.50;;
6043;SDS011;3050;42.660;23.276;2023-04-16T03:25:56;4.33;;;0.97;;
6043;SDS011;3050;42.660;23.276;2023-04-16T03:28:23;1.30;;;1.20;;
6043;SDS011;3050;42.660;23.276;2023-04-16T03:30:56;0.60;;;0.50;;
6043;SDS011;3050;42.660;23.276;2023-04-16T03:33:23;0.53;;;0.53;;
6043;SDS011;3050;42.660;23.276;2023-04-16T03:35:54;1.03;;;0.73;;
6043;SDS011;3050;42.660;23.276;2023-04-16T03:38:24;1.10;;;1.10;;
6043;SDS011;3050;42.660;23.276;2023-04-16T03:40:52;3.20;;;1.20;;
6043;SDS011;3050;42.660;23.276;2023-04-16T03:43:19;3.90;;;1.47;;
6043;SDS011;3050;42.660;23.276;2023-04-16T03:45:46;0.90;;;0.80;;
6043;SDS011;3050;42.660;23.276;2023-04-16T03:48:14;1.40;;;1.03;;
6043;SDS011;3050;42.660;23.276;2023-04-16T03:50:43;0.70;;;0.70;;
6043;SDS011;3050;42.660;23.276;2023-04-16T03:53:12;0.60;;;0.60;;
6043;SDS011;3050;42.660;23.276;2023-04-16T03:55:41;0.80;;;0.80;;
6043;SDS011;3050;42.660;23.276;2023-04-16T03:58:09;0.60;;;0.60;;
6043;SDS011;3050;42.660;23.276;2023-04-16T04:00:36;0.63;;;0.63;;
6043;SDS011;3050;42.660;23.276;2023-04-16T04:03:03;0.83;;;0.83;;
6043;SDS011;3050;42.660;23.276;2023-04-16T04:05:30;0.70;;;0.70;;
6043;SDS011;3050;42.660;23.276;2023-04-16T04:07:57;0.80;;;0.80;;
6043;SDS011;3050;42.660;23.276;2023-04-16T04:10:24;0.97;;;0.73;;
6043;SDS011;3050;42.660;23.276;2023-04-16T04:12:58;0.77;;;0.77;;
6043;SDS011;3050;42.660;23.276;2023-04-16T04:15:25;0.50;;;0.50;;
6043;SDS011;3050;42.660;23.276;2023-04-16T04:17:53;3.80;;;0.87;;
6043;SDS011;3050;42.660;23.276;2023-04-16T04:20:20;1.33;;;0.80;;
6043;SDS011;3050;42.660;23.276;2023-04-16T04:22:48;1.20;;;0.93;;
6043;SDS011;3050;42.660;23.276;2023-04-16T04:25:17;0.63;;;0.63;;
6043;SDS011;3050;42.660;23.276;2023-04-16T04:27:44;0.97;;;0.90;;
6043;SDS011;3050;42.660;23.276;2023-04-16T04:30:13;7.73;;;0.97;;
6043;SDS011;3050;42.660;23.276;2023-04-16T04:32:40;0.93;;;0.93;;
6043;SDS011;3050;42.660;23.276;2023-04-16T04:35:07;0.77;;;0.67;;
6043;SDS011;3050;42.660;23.276;2023-04-16T04:37:34;2.90;;;1.00;;
6043;SDS011;3050;42.660;23.276;2023-04-16T04:40:03;1.60;;;0.83;;
6043;SDS011;3050;42.660;23.276;2023-04-16T04:42:33;0.70;;;0.70;;
6043;SDS011;3050;42.660;23.276;2023-04-16T04:45:01;0.80;;;0.80;;
6043;SDS011;3050;42.660;23.276;2023-04-16T04:47:31;2.57;;;0.60;;
6043;SDS011;3050;42.660;23.276;2023-04-16T04:49:58;1.73;;;1.00;;
6043;SDS011;3050;42.660;23.276;2023-04-16T04:52:26;0.90;;;0.90;;
6043;SDS011;3050;42.660;23.276;2023-04-16T04:54:53;0.53;;;0.53;;
6043;SDS011;3050;42.660;23.276;2023-04-16T04:57:20;2.33;;;1.47;;
6043;SDS011;3050;42.660;23.276;2023-04-16T04:59:48;6.07;;;0.93;;
6043;SDS011;3050;42.660;23.276;2023-04-16T05:02:16;1.50;;;1.40;;
6043;SDS011;3050;42.660;23.276;2023-04-16T05:04:45;2.07;;;1.07;;
6043;SDS011;3050;42.660;23.276;2023-04-16T05:07:12;2.90;;;1.20;;
6043;SDS011;3050;42.660;23.276;2023-04-16T05:09:40;1.73;;;1.10;;
6043;SDS011;3050;42.660;23.276;2023-04-16T05:12:07;3.23;;;1.43;;
6043;SDS011;3050;42.660;23.276;2023-04-16T05:14:34;1.60;;;1.40;;
6043;SDS011;3050;42.660;23.276;2023-04-16T05:17:04;2.70;;;1.27;;
6043;SDS011;3050;42.660;23.276;2023-04-16T05:19:32;1.97;;;1.37;;
6043;SDS011;3050;42.660;23.276;2023-04-16T05:22:00;1.93;;;0.93;;
6043;SDS011;3050;42.660;23.276;2023-04-16T05:24:28;1.70;;;1.60;;
6043;SDS011;3050;42.660;23.276;2023-04-16T05:26:56;3.70;;;2.30;;
6043;SDS011;3050;42.660;23.276;2023-04-16T05:29:26;2.20;;;1.57;;
6043;SDS011;3050;42.660;23.276;2023-04-16T05:31:56;2.13;;;1.93;;
6043;SDS011;3050;42.660;23.276;2023-04-16T05:34:23;6.83;;;1.97;;
6043;SDS011;3050;42.660;23.276;2023-04-16T05:36:50;1.67;;;1.43;;
6043;SDS011;3050;42.660;23.276;2023-04-16T05:39:20;1.53;;;1.37;;
6043;SDS011;3050;42.660;23.276;2023-04-16T05:41:47;1.40;;;1.30;;
6043;SDS011;3050;42.660;23.276;2023-04-16T05:44:15;1.70;;;1.40;;
6043;SDS011;3050;42.660;23.276;2023-04-16T05:46:42;1.60;;;1.40;;
6043;SDS011;3050;42.660;23.276;2023-04-16T05:49:09;1.60;;;1.50;;
6043;SDS011;3050;42.660;23.276;2023-04-16T05:51:38;1.73;;;1.63;;
6043;SDS011;3050;42.660;23.276;2023-04-16T05:54:05;1.40;;;1.40;;
6043;SDS011;3050;42.660;23.276;2023-04-16T05:56:33;4.50;;;1.20;;
6043;SDS011;3050;42.660;23.276;2023-04-16T05:59:01;1.57;;;1.47;;
6043;SDS011;3050;42.660;23.276;2023-04-16T06:01:28;1.60;;;1.50;;
6043;SDS011;3050;42.660;23.276;2023-04-16T06:03:55;1.47;;;1.33;;
6043;SDS011;3050;42.660;23.276;2023-04-16T06:06:24;3.30;;;2.00;;
6043;SDS011;3050;42.660;23.276;2023-04-16T06:08:52;1.97;;;1.50;;
6043;SDS011;3050;42.660;23.276;2023-04-16T06:11:21;3.53;;;2.13;;
6043;SDS011;3050;42.660;23.276;2023-04-16T06:13:54;3.33;;;1.90;;
6043;SDS011;3050;42.660;23.276;2023-04-16T06:16:31;1.30;;;1.30;;
6043;SDS011;3050;42.660;23.276;2023-04-16T06:18:59;4.83;;;1.47;;
6043;SDS011;3050;42.660;23.276;2023-04-16T06:21:27;1.43;;;1.33;;
6043;SDS011;3050;42.660;23.276;2023-04-16T06:23:54;2.57;;;1.67;;
6043;SDS011;3050;42.660;23.276;2023-04-16T06:26:21;2.07;;;1.77;;
6043;SDS011;3050;42.660;23.276;2023-04-16T06:28:50;2.00;;;1.83;;
6043;SDS011;3050;42.660;23.276;2023-04-16T06:31:17;1.47;;;1.43;;
6043;SDS011;3050;42.660;23.276;2023-04-16T06:33:45;2.60;;;2.40;;
6043;SDS011;3050;42.660;23.276;2023-04-16T06:36:12;2.20;;;2.10;;
6043;SDS011;3050;42.660;23.276;2023-04-16T06:38:41;2.83;;;1.70;;
6043;SDS011;3050;42.660;23.276;2023-04-16T06:41:08;1.97;;;1.80;;
6043;SDS011;3050;42.660;23.276;2023-04-16T06:43:35;2.50;;;2.10;;
6043;SDS011;3050;42.660;23.276;2023-04-16T06:46:06;2.00;;;1.90;;
6043;SDS011;3050;42.660;23.276;2023-04-16T06:48:47;2.85;;;2.40;;
6043;SDS011;3050;42.660;23.276;2023-04-16T06:51:19;2.35;;;2.25;;
6043;SDS011;3050;42.660;23.276;2023-04-16T06:53:47;3.80;;;2.67;;
6043;SDS011;3050;42.660;23.276;2023-04-16T06:56:18;2.55;;;2.35;;
6043;SDS011;3050;42.660;23.276;2023-04-16T06:58:46;1.95;;;1.85;;
6043;SDS011;3050;42.660;23.276;2023-04-16T07:01:18;4.55;;;2.45;;
6043;SDS011;3050;42.660;23.276;2023-04-16T07:03:47;2.03;;;1.92;;
6043;SDS011;3050;42.660;23.276;2023-04-16T07:06:14;2.38;;;2.25;;
6043;SDS011;3050;42.660;23.276;2023-04-16T07:08:44;2.42;;;2.30;;
6043;SDS011;3050;42.660;23.276;2023-04-16T07:11:11;2.28;;;2.08;;
6043;SDS011;3050;42.660;23.276;2023-04-16T07:13:38;2.33;;;2.08;;
6043;SDS011;3050;42.660;23.276;2023-04-16T07:16:09;4.10;;;2.80;;
6043;SDS011;3050;42.660;23.276;2023-04-16T07:18:40;4.70;;;2.40;;
6043;SDS011;3050;42.660;23.276;2023-04-16T07:21:09;2.25;;;2.15;;
6043;SDS011;3050;42.660;23.276;2023-04-16T07:23:39;4.03;;;2.72;;
6043;SDS011;3050;42.660;23.276;2023-04-16T07:26:06;4.07;;;2.40;;
6043;SDS011;3050;42.660;23.276;2023-04-16T07:28:36;4.55;;;2.15;;
6043;SDS011;3050;42.660;23.276;2023-04-16T07:31:04;2.95;;;2.40;;
6043;SDS011;3050;42.660;23.276;2023-04-16T07:33:32;2.53;;;2.33;;
6043;SDS011;3050;42.660;23.276;2023-04-16T07:36:02;2.53;;;2.33;;
6043;SDS011;3050;42.660;23.276;2023-04-16T07:38:30;2.63;;;2.10;;
6043;SDS011;3050;42.660;23.276;2023-04-16T07:40:59;2.40;;;2.30;;
6043;SDS011;3050;42.660;23.276;2023-04-16T07:43:32;2.25;;;2.10;;
6043;SDS011;3050;42.660;23.276;2023-04-16T07:46:01;2.15;;;1.80;;
6043;SDS011;3050;42.660;23.276;2023-04-16T07:48:35;3.72;;;2.22;;
6043;SDS011;3050;42.660;23.276;2023-04-16T07:51:06;3.13;;;2.80;;
6043;SDS011;3050;42.660;23.276;2023-04-16T07:53:43;4.18;;;3.08;;
6043;SDS011;3050;42.660;23.276;2023-04-16T07:56:11;3.80;;;2.08;;
6043;SDS011;3050;42.660;23.276;2023-04-16T07:58:39;2.13;;;1.77;;
6043;SDS011;3050;42.660;23.276;2023-04-16T08:01:09;2.78;;;2.15;;
6043;SDS011;3050;42.660;23.276;2023-04-16T08:03:40;2.20;;;2.00;;
6043;SDS011;3050;42.660;23.276;2023-04-16T08:06:12;2.75;;;2.13;;
6043;SDS011;3050;42.660;23.276;2023-04-16T08:08:39;2.28;;;2.08;;
6043;SDS011;3050;42.660;23.276;2023-04-16T08:11:10;1.90;;;1.80;;
6043;SDS011;3050;42.660;23.276;2023-04-16T08:13:38;1.67;;;1.58;;
6043;SDS011;3050;42.660;23.276;2023-04-16T08:16:07;2.53;;;1.90;;
6043;SDS011;3050;42.660;23.276;2023-04-16T08:18:34;1.50;;;1.33;;
6043;SDS011;3050;42.660;23.276;2023-04-16T08:21:02;1.35;;;1.35;;
6043;SDS011;3050;42.660;23.276;2023-04-16T08:23:33;1.77;;;1.67;;
6043;SDS011;3050;42.660;23.276;2023-04-16T08:26:00;1.45;;;1.35;;
6043;SDS011;3050;42.660;23.276;2023-04-16T08:28:33;1.73;;;1.63;;
6043;SDS011;3050;42.660;23.276;2023-04-16T08:31:03;1.52;;;1.30;;
6043;SDS011;3050;42.660;23.276;2023-04-16T08:33:36;1.52;;;1.30;;
6043;SDS011;3050;42.660;23.276;2023-04-16T08:36:04;1.15;;;1.15;;
6043;SDS011;3050;42.660;23.276;2023-04-16T08:44:08;2.97;;;1.10;;
6043;SDS011;3050;42.660;23.276;2023-04-16T08:46:39;1.05;;;1.05;;
6043;SDS011;3050;42.660;23.276;2023-04-16T08:49:07;2.70;;;1.20;;
6043;SDS011;3050;42.660;23.276;2023-04-16T08:51:38;0.98;;;0.98;;
6043;SDS011;3050;42.660;23.276;2023-04-16T08:54:13;0.70;;;0.70;;
6043;SDS011;3050;42.660;23.276;2023-04-16T08:56:51;0.95;;;0.95;;
6043;SDS011;3050;42.660;23.276;2023-04-16T08:59:27;1.33;;;1.13;;
6043;SDS011;3050;42.660;23.276;2023-04-16T09:02:00;1.02;;;1.02;;
6043;SDS011;3050;42.660;23.276;2023-04-16T09:04:28;2.63;;;1.33;;
6043;SDS011;3050;42.660;23.276;2023-04-16T09:06:57;1.75;;;0.98;;
6043;SDS011;3050;42.660;23.276;2023-04-16T09:09:27;1.50;;;0.93;;
6043;SDS011;3050;42.660;23.276;2023-04-16T09:12:03;0.90;;;0.90;;
6043;SDS011;3050;42.660;23.276;2023-04-16T09:14:39;0.90;;;0.90;;
6043;SDS011;3050;42.660;23.276;2023-04-16T09:17:10;0.95;;;0.95;;
6043;SDS011;3050;42.660;23.276;2023-04-16T09:19:38;1.17;;;1.17;;
6043;SDS011;3050;42.660;23.276;2023-04-16T09:22:09;0.90;;;0.73;;
6043;SDS011;3050;42.660;23.276;2023-04-16T09:24:36;1.02;;;0.93;;
6043;SDS011;3050;42.660;23.276;2023-04-16T09:27:04;1.00;;;0.65;;
6043;SDS011;3050;42.660;23.276;2023-04-16T09:29:35;1.08;;;1.08;;
6043;SDS011;3050;42.660;23.276;2023-04-16T09:32:05;0.77;;;0.77;;
6043;SDS011;3050;42.660;23.276;2023-04-16T09:34:33;0.95;;;0.85;;
6043;SDS011;3050;42.660;23.276;2023-04-16T09:37:14;3.70;;;1.15;;
6043;SDS011;3050;42.660;23.276;2023-04-16T09:39:42;1.58;;;1.42;;
6043;SDS011;3050;42.660;23.276;2023-04-16T09:42:14;0.80;;;0.80;;
6043;SDS011;3050;42.660;23.276;2023-04-16T09:44:44;1.17;;;0.80;;
6043;SDS011;3050;42.660;23.276;2023-04-16T09:47:19;0.70;;;0.70;;
6043;SDS011;3050;42.660;23.276;2023-04-16T09:49:51;0.55;;;0.55;;
6043;SDS011;3050;42.660;23.276;2023-04-16T09:52:21;0.80;;;0.80;;
6043;SDS011;3050;42.660;23.276;2023-04-16T09:54:50;0.50;;;0.50;;
6043;SDS011;3050;42.660;23.276;2023-04-16T09:57:19;0.80;;;0.80;;
6043;SDS011;3050;42.660;23.276;2023-04-16T09:59:47;1.27;;;0.60;;
6043;SDS011;3050;42.660;23.276;2023-04-16T10:02:17;0.77;;;0.57;;
6043;SDS011;3050;42.660;23.276;2023-04-16T10:04:50;0.95;;;0.80;;
6043;SDS011;3050;42.660;23.276;2023-04-16T10:07:23;1.95;;;0.52;;
6043;SDS011;3050;42.660;23.276;2023-04-16T10:09:56;2.00;;;0.52;;
6043;SDS011;3050;42.660;23.276;2023-04-16T10:12:24;0.68;;;0.68;;
6043;SDS011;3050;42.660;23.276;2023-04-16T10:14:55;2.20;;;0.88;;
6043;SDS011;3050;42.660;23.276;2023-04-16T10:17:23;2.72;;;0.82;;
6043;SDS011;3050;42.660;23.276;2023-04-16T10:19:57;0.68;;;0.68;;
6043;SDS011;3050;42.660;23.276;2023-04-16T10:22:31;2.63;;;0.75;;
6043;SDS011;3050;42.660;23.276;2023-04-16T10:24:58;0.70;;;0.70;;
6043;SDS011;3050;42.660;23.276;2023-04-16T10:27:29;1.02;;;0.85;;
6043;SDS011;3050;42.660;23.276;2023-04-16T10:29:58;1.08;;;0.77;;
6043;SDS011;3050;42.660;23.276;2023-04-16T10:32:26;6.22;;;3.10;;
6043;SDS011;3050;42.660;23.276;2023-04-16T10:34:57;1.75;;;1.17;;
6043;SDS011;3050;42.660;23.276;2023-04-16T10:37:28;2.08;;;1.20;;
6043;SDS011;3050;42.660;23.276;2023-04-16T10:39:56;1.00;;;1.00;;
6043;SDS011;3050;42.660;23.276;2023-04-16T10:42:29;3.22;;;1.20;;
6043;SDS011;3050;42.660;23.276;2023-04-16T10:45:01;1.45;;;0.90;;
6043;SDS011;3050;42.660;23.276;2023-04-16T10:47:28;0.75;;;0.75;;
6043;SDS011;3050;42.660;23.276;2023-04-16T10:50:03;1.73;;;0.88;;
6043;SDS011;3050;42.660;23.276;2023-04-16T10:52:48;0.85;;;0.77;;
6043;SDS011;3050;42.660;23.276;2023-04-16T10:55:17;4.30;;;0.98;;
6043;SDS011;3050;42.660;23.276;2023-04-16T10:57:44;0.68;;;0.65;;
6043;SDS011;3050;42.660;23.276;2023-04-16T11:00:20;1.40;;;0.80;;
6043;SDS011;3050;42.660;23.276;2023-04-16T11:02:58;5.38;;;0.82;;
6043;SDS011;3050;42.660;23.276;2023-04-16T11:05:28;0.52;;;0.50;;
6043;SDS011;3050;42.660;23.276;2023-04-16T11:08:12;3.72;;;0.60;;
6043;SDS011;3050;42.660;23.276;2023-04-16T11:10:59;0.63;;;0.63;;
6043;SDS011;3050;42.660;23.276;2023-04-16T11:13:32;1.08;;;0.90;;
6043;SDS011;3050;42.660;23.276;2023-04-16T11:16:05;0.80;;;0.80;;
6043;SDS011;3050;42.660;23.276;2023-04-16T11:18:43;0.70;;;0.70;;
6043;SDS011;3050;42.660;23.276;2023-04-16T11:21:30;0.70;;;0.70;;
6043;SDS011;3050;42.660;23.276;2023-04-16T11:24:02;2.72;;;1.10;;
6043;SDS011;3050;42.660;23.276;2023-04-16T11:26:38;1.13;;;1.05;;
6043;SDS011;3050;42.660;23.276;2023-04-16T11:29:19;1.13;;;0.90;;
6043;SDS011;3050;42.660;23.276;2023-04-16T11:34:46;0.70;;;0.70;;
6043;SDS011;3050;42.660;23.276;2023-04-16T11:37:21;1.00;;;0.90;;
6043;SDS011;3050;42.660;23.276;2023-04-16T11:40:02;0.80;;;0.75;;
6043;SDS011;3050;42.660;23.276;2023-04-16T11:42:48;4.53;;;2.15;;
6043;SDS011;3050;42.660;23.276;2023-04-16T11:45:17;2.08;;;0.82;;
6043;SDS011;3050;42.660;23.276;2023-04-16T11:47:47;1.17;;;1.08;;
6043;SDS011;3050;42.660;23.276;2023-04-16T11:50:20;1.60;;;1.50;;
6043;SDS011;3050;42.660;23.276;2023-04-16T11:52:53;0.70;;;0.70;;
6043;SDS011;3050;42.660;23.276;2023-04-16T11:55:25;0.95;;;0.95;;
6043;SDS011;3050;42.660;23.276;2023-04-16T11:57:55;1.33;;;0.93;;
6043;SDS011;3050;42.660;23.276;2023-04-16T12:00:33;2.70;;;0.75;;
6043;SDS011;3050;42.660;23.276;2023-04-16T12:03:05;0.75;;;0.75;;
6043;SDS011;3050;42.660;23.276;2023-04-16T12:05:33;3.25;;;0.98;;
6043;SDS011;3050;42.660;23.276;2023-04-16T12:08:08;0.47;;;0.47;;
6043;SDS011;3050;42.660;23.276;2023-04-16T12:10:51;2.30;;;1.35;;
6043;SDS011;3050;42.660;23.276;2023-04-16T12:13:21;0.57;;;0.52;;
6043;SDS011;3050;42.660;23.276;2023-04-16T12:15:49;0.82;;;0.60;;
6043;SDS011;3050;42.660;23.276;2023-04-16T12:18:17;0.93;;;0.93;;
6043;SDS011;3050;42.660;23.276;2023-04-16T12:20:47;0.70;;;0.70;;
6043;SDS011;3050;42.660;23.276;2023-04-16T12:23:23;0.73;;;0.73;;
6043;SDS011;3050;42.660;23.276;2023-04-16T12:25:51;0.70;;;0.70;;
6043;SDS011;3050;42.660;23.276;2023-04-16T12:28:30;0.60;;;0.60;;
6043;SDS011;3050;42.660;23.276;2023-04-16T12:31:00;1.58;;;0.80;;
6043;SDS011;3050;42.660;23.276;2023-04-16T12:33:28;1.33;;;1.15;;
6043;SDS011;3050;42.660;23.276;2023-04-16T12:35:56;1.77;;;0.70;;
6043;SDS011;3050;42.660;23.276;2023-04-16T12:38:26;0.65;;;0.65;;
6043;SDS011;3050;42.660;23.276;2023-04-16T12:40:59;0.80;;;0.80;;
6043;SDS011;3050;42.660;23.276;2023-04-16T12:43:35;0.75;;;0.75;;
6043;SDS011;3050;42.660;23.276;2023-04-16T12:46:04;0.85;;;0.85;;
6043;SDS011;3050;42.660;23.276;2023-04-16T12:48:34;0.50;;;0.50;;
6043;SDS011;3050;42.660;23.276;2023-04-16T12:51:02;4.65;;;3.28;;
6043;SDS011;3050;42.660;23.276;2023-04-16T12:53:31;0.80;;;0.80;;
6043;SDS011;3050;42.660;23.276;2023-04-16T12:55:59;0.52;;;0.52;;
6043;SDS011;3050;42.660;23.276;2023-04-16T12:58:30;0.80;;;0.80;;
6043;SDS011;3050;42.660;23.276;2023-04-16T13:00:58;2.60;;;0.55;;
6043;SDS011;3050;42.660;23.276;2023-04-16T13:03:26;0.63;;;0.63;;
6043;SDS011;3050;42.660;23.276;2023-04-16T13:05:55;0.70;;;0.70;;
6043;SDS011;3050;42.660;23.276;2023-04-16T13:08:24;0.85;;;0.60;;
6043;SDS011;3050;42.660;23.276;2023-04-16T13:10:57;0.68;;;0.60;;
6043;SDS011;3050;42.660;23.276;2023-04-16T13:13:25;1.95;;;0.50;;
6043;SDS011;3050;42.660;23.276;2023-04-16T13:15:55;0.88;;;0.82;;
6043;SDS011;3050;42.660;23.276;2023-04-16T13:18:38;1.30;;;0.80;;
6043;SDS011;3050;42.660;23.276;2023-04-16T13:21:10;0.43;;;0.43;;
6043;SDS011;3050;42.660;23.276;2023-04-16T13:23:42;0.93;;;0.63;;
6043;SDS011;3050;42.660;23.276;2023-04-16T13:26:22;0.50;;;0.45;;
6043;SDS011;3050;42.660;23.276;2023-04-16T13:28:57;1.05;;;0.98;;
6043;SDS011;3050;42.660;23.276;2023-04-16T13:31:26;2.03;;;0.90;;
6043;SDS011;3050;42.660;23.276;2023-04-16T13:33:55;0.50;;;0.50;;
6043;SDS011;3050;42.660;23.276;2023-04-16T13:36:30;0.30;;;0.30;;
6043;SDS011;3050;42.660;23.276;2023-04-16T13:39:01;0.40;;;0.40;;
6043;SDS011;3050;42.660;23.276;2023-04-16T13:41:31;0.63;;;0.63;;
6043;SDS011;3050;42.660;23.276;2023-04-16T13:43:59;0.67;;;0.67;;
6043;SDS011;3050;42.660;23.276;2023-04-16T13:46:28;0.50;;;0.50;;
6043;SDS011;3050;42.660;23.276;2023-04-16T13:48:55;3.10;;;1.13;;
6043;SDS011;3050;42.660;23.276;2023-04-16T13:51:25;4.83;;;2.07;;
6043;SDS011;3050;42.660;23.276;2023-04-16T13:53:54;1.50;;;1.40;;
6043;SDS011;3050;42.660;23.276;2023-04-16T13:56:24;0.80;;;0.80;;
6043;SDS011;3050;42.660;23.276;2023-04-16T14:01:48;1.90;;;1.00;;
6043;SDS011;3050;42.660;23.276;2023-04-16T14:04:19;0.80;;;0.80;;
6043;SDS011;3050;42.660;23.276;2023-04-16T14:06:58;2.40;;;0.70;;
6043;SDS011;3050;42.660;23.276;2023-04-16T14:09:28;2.33;;;0.87;;
6043;SDS011;3050;42.660;23.276;2023-04-16T14:12:04;1.30;;;1.17;;
6043;SDS011;3050;42.660;23.276;2023-04-16T14:14:34;1.93;;;1.30;;
6043;SDS011;3050;42.660;23.276;2023-04-16T14:17:08;0.80;;;0.80;;
6043;SDS011;3050;42.660;23.276;2023-04-16T14:19:36;1.50;;;0.90;;
6043;SDS011;3050;42.660;23.276;2023-04-16T14:22:04;1.30;;;0.83;;
6043;SDS011;3050;42.660;23.276;2023-04-16T14:24:32;0.93;;;0.93;;
6043;SDS011;3050;42.660;23.276;2023-04-16T14:27:00;1.60;;;1.50;;
6043;SDS011;3050;42.660;23.276;2023-04-16T14:29:29;1.17;;;0.83;;
6043;SDS011;3050;42.660;23.276;2023-04-16T14:32:11;0.87;;;0.87;;
6043;SDS011;3050;42.660;23.276;2023-04-16T14:34:38;1.07;;;1.00;;
6043;SDS011;3050;42.660;23.276;2023-04-16T14:37:15;0.80;;;0.80;;
6043;SDS011;3050;42.660;23.276;2023-04-16T14:39:49;0.43;;;0.43;;
6043;SDS011;3050;42.660;23.276;2023-04-16T14:42:20;1.10;;;1.00;;
6043;SDS011;3050;42.660;23.276;2023-04-16T14:45:01;2.40;;;0.80;;
6043;SDS011;3050;42.660;23.276;2023-04-16T14:50:47;1.10;;;1.10;;
6043;SDS011;3050;42.660;23.276;2023-04-16T14:53:36;0.87;;;0.77;;
6043;SDS011;3050;42.660;23.276;2023-04-16T14:56:31;0.50;;;0.50;;
6043;SDS011;3050;42.660;23.276;2023-04-16T14:59:14;1.40;;;1.30;;
6043;SDS011;3050;42.660;23.276;2023-04-16T15:01:53;1.03;;;0.97;;
6043;SDS011;3050;42.660;23.276;2023-04-16T15:04:24;1.53;;;1.43;;
6043;SDS011;3050;42.660;23.276;2023-04-16T15:10:06;3.90;;;2.77;;
6043;SDS011;3050;42.660;23.276;2023-04-16T15:12:55;15.13;;;5.63;;
6043;SDS011;3050;42.660;23.276;2023-04-16T15:15:36;1.50;;;1.33;;
6043;SDS011;3050;42.660;23.276;2023-04-16T15:18:22;0.83;;;0.83;;
6043;SDS011;3050;42.660;23.276;2023-04-16T15:21:13;0.70;;;0.70;;
6043;SDS011;3050;42.660;23.276;2023-04-16T15:45:35;0.90;;;0.90;;
6043;SDS011;3050;42.660;23.276;2023-04-16T15:48:12;1.80;;;1.70;;
6043;SDS011;3050;42.660;23.276;2023-04-16T15:54:24;1.77;;;1.70;;
6043;SDS011;3050;42.660;23.276;2023-04-16T15:57:50;1.43;;;1.43;;
6043;SDS011;3050;42.660;23.276;2023-04-16T16:00:06;1.33;;;1.33;;
6043;SDS011;3050;42.660;23.276;2023-04-16T17:43:47;4.20;;;1.97;;